createdAt,value
2022-10-13T00:00:16.243Z,101791.91
2022-10-13T00:02:44.619Z,101796.34
2022-10-13T00:05:14.344Z,101798.97
2022-10-13T00:07:42.716Z,101797.19
2022-10-13T00:10:13.398Z,101789.28
2022-10-13T00:12:41.505Z,101790.19
2022-10-13T00:15:10.983Z,101788.41
2022-10-13T00:17:39.266Z,101791.06
2022-10-13T00:20:08.895Z,101784.00
2022-10-13T00:22:38.712Z,101782.22
2022-10-13T00:25:09.886Z,101778.69
2022-10-13T00:27:39.225Z,101772.53
2022-10-13T00:30:10.733Z,101775.19
2022-10-13T00:32:39.205Z,101773.41
2022-10-13T00:35:07.766Z,101772.53
2022-10-13T00:37:35.889Z,101765.44
2022-10-13T00:40:07.032Z,101758.41
2022-10-13T00:42:35.135Z,101763.69
2022-10-13T00:45:08.222Z,101761.97
2022-10-13T00:47:41.649Z,101767.28
2022-10-13T00:50:13.218Z,101745.22
2022-10-13T00:52:43.844Z,101753.16
2022-10-13T00:55:18.113Z,101746.13
2022-10-13T00:57:54.733Z,101750.53
2022-10-13T01:00:24.571Z,101732.06
2022-10-13T01:02:53.346Z,101727.66
2022-10-13T01:05:23.177Z,101729.41
2022-10-13T01:07:52.366Z,101727.63
2022-10-13T01:10:31.181Z,101716.19
2022-10-13T01:13:05.193Z,101709.13
2022-10-13T01:15:39.926Z,101707.41
2022-10-13T01:18:17.733Z,101702.09
2022-10-13T01:20:58.975Z,101689.75
2022-10-13T01:24:14.552Z,101686.25
2022-10-13T01:27:05.232Z,101672.13
2022-10-13T01:30:07.059Z,101679.19
2022-10-13T01:32:52.102Z,101665.09
2022-10-13T01:35:27.102Z,101660.69
2022-10-13T01:37:59.174Z,101637.78
2022-10-13T01:40:33.510Z,101656.28
2022-10-13T01:43:06.405Z,101651.00
2022-10-13T01:45:41.671Z,101628.06
2022-10-13T01:48:11.956Z,101640.44
2022-10-13T01:50:41.047Z,101640.41
2022-10-13T01:53:12.181Z,101629.84
2022-10-13T01:55:51.447Z,101635.13
2022-10-13T01:58:19.824Z,101623.69
2022-10-13T02:01:01.537Z,101621.06
2022-10-13T02:03:41.286Z,101617.53
2022-10-13T02:06:20.704Z,101622.81
2022-10-13T02:08:58.182Z,101598.13
2022-10-13T02:11:26.645Z,101604.28
2022-10-13T02:14:01.303Z,101601.69
2022-10-13T02:16:35.400Z,101592.88
2022-10-13T02:19:07.111Z,101578.78
2022-10-13T02:21:35.843Z,101584.03
2022-10-13T02:24:04.920Z,101585.81
2022-10-13T02:26:34.824Z,101582.31
2022-10-13T02:29:10.037Z,101578.78
2022-10-13T02:31:43.933Z,101579.66
2022-10-13T02:34:12.972Z,101564.72
2022-10-13T02:36:41.882Z,101569.97
2022-10-13T02:39:11.270Z,101566.44
2022-10-13T02:41:41.462Z,101562.94
2022-10-13T02:44:09.788Z,101561.16
2022-10-13T02:46:39.861Z,101559.41
2022-10-13T02:49:08.225Z,101550.59
2022-10-13T02:51:40.087Z,101559.41
2022-10-13T02:54:09.015Z,101547.94
2022-10-13T02:56:40.985Z,101548.81
2022-10-13T02:59:09.102Z,101549.69
2022-10-13T03:01:41.441Z,101538.25
2022-10-13T03:04:11.493Z,101541.75
2022-10-13T03:06:39.916Z,101538.25
2022-10-13T03:09:09.215Z,101541.75
2022-10-13T03:11:37.309Z,101540.00
2022-10-13T03:14:05.585Z,101533.84
2022-10-13T03:16:34.095Z,101520.63
2022-10-13T03:19:02.507Z,101518.84
2022-10-13T03:21:32.350Z,101515.34
2022-10-13T03:24:00.547Z,101515.31
2022-10-13T03:26:28.986Z,101522.38
2022-10-13T03:28:57.130Z,101517.97
2022-10-13T03:31:25.486Z,101511.81
2022-10-13T03:33:53.840Z,101513.59
2022-10-13T03:36:22.009Z,101505.66
2022-10-13T03:38:51.718Z,101504.81
2022-10-13T03:41:20.706Z,101503.91
2022-10-13T03:43:48.929Z,101488.94
2022-10-13T03:46:19.444Z,101491.59
2022-10-13T03:48:48.529Z,101487.19
2022-10-13T03:51:19.775Z,101478.38
2022-10-13T03:53:48.979Z,101473.09
2022-10-13T03:56:20.730Z,101480.13
2022-10-13T03:58:53.868Z,101473.94
2022-10-13T04:01:22.446Z,101466.03
2022-10-13T04:03:51.552Z,101408.00
2022-10-13T04:06:20.009Z,101463.38
2022-10-13T04:08:48.496Z,101464.25
2022-10-13T04:11:18.829Z,101454.56
2022-10-13T04:13:47.495Z,101458.09
2022-10-13T04:16:17.597Z,101451.03
2022-10-13T04:18:46.259Z,101450.19
2022-10-13T04:21:16.343Z,101449.31
2022-10-13T04:23:44.325Z,101419.41
2022-10-13T04:26:19.625Z,101437.88
2022-10-13T04:28:49.048Z,101436.16
2022-10-13T04:31:18.057Z,101439.66
2022-10-13T04:33:46.916Z,101434.38
2022-10-13T04:36:16.588Z,101430.03
2022-10-13T04:38:45.395Z,101432.66
2022-10-13T04:41:14.714Z,101437.91
2022-10-13T04:43:44.660Z,101427.38
2022-10-13T04:46:17.012Z,101423.84
2022-10-13T04:48:45.170Z,101424.72
2022-10-13T04:51:15.235Z,101422.06
2022-10-13T04:53:43.566Z,101420.31
2022-10-13T04:56:13.804Z,101419.44
2022-10-13T04:58:46.381Z,101420.31
2022-10-13T05:01:22.277Z,101421.22
2022-10-13T05:03:53.032Z,101413.31
2022-10-13T05:06:23.711Z,101420.34
2022-10-13T05:08:52.379Z,101416.81
2022-10-13T05:11:20.949Z,101415.03
2022-10-13T05:13:50.622Z,101418.53
2022-10-13T05:16:21.351Z,101416.81
2022-10-13T05:18:49.986Z,101406.22
2022-10-13T05:21:20.430Z,101416.78
2022-10-13T05:23:48.717Z,101408.88
2022-10-13T05:26:18.703Z,101406.19
2022-10-13T05:28:47.555Z,101411.50
2022-10-13T05:31:19.288Z,101403.56
2022-10-13T05:33:47.997Z,101415.03
2022-10-13T05:36:17.831Z,101407.97
2022-10-13T05:38:47.401Z,101402.69
2022-10-13T05:41:16.167Z,101393.88
2022-10-13T05:43:44.682Z,101399.19
2022-10-13T05:46:13.188Z,101387.75
2022-10-13T05:48:45.762Z,101385.06
2022-10-13T05:51:18.257Z,101378.06
2022-10-13T05:53:55.336Z,101378.94
2022-10-13T05:56:31.698Z,101378.97
2022-10-13T05:59:04.073Z,101376.31
2022-10-13T06:01:35.874Z,101371.91
2022-10-13T06:04:09.907Z,101373.66
2022-10-13T06:06:38.342Z,101361.31
2022-10-13T06:09:06.616Z,101363.97
2022-10-13T06:11:34.763Z,101353.38
2022-10-13T06:14:03.712Z,101353.41
2022-10-13T06:16:31.900Z,101357.81
2022-10-13T06:18:59.980Z,101349.91
2022-10-13T06:21:29.596Z,101349.88
2022-10-13T06:23:58.869Z,101347.25
2022-10-13T06:26:26.970Z,101351.66
2022-10-13T06:28:59.294Z,101346.38
2022-10-13T06:31:28.339Z,101352.50
2022-10-13T06:33:56.879Z,101349.00
2022-10-13T06:36:25.250Z,101346.38
2022-10-13T06:38:55.040Z,101342.81
2022-10-13T06:41:23.600Z,101349.00
2022-10-13T06:43:51.773Z,101351.63
2022-10-13T06:46:20.718Z,101340.22
2022-10-13T06:48:51.388Z,101349.84
2022-10-13T06:51:19.629Z,101346.34
2022-10-13T06:53:47.787Z,101340.19
2022-10-13T06:56:17.365Z,101344.63
2022-10-13T06:58:46.349Z,101337.53
2022-10-13T07:01:15.221Z,101333.16
2022-10-13T07:03:43.867Z,101339.28
2022-10-13T07:06:19.797Z,101337.53
2022-10-13T07:08:50.149Z,101337.50
2022-10-13T07:11:19.847Z,101340.16
2022-10-13T07:13:48.040Z,101348.06
2022-10-13T07:16:16.844Z,101347.22
2022-10-13T07:18:45.247Z,101344.56
2022-10-13T07:21:13.439Z,101348.09
2022-10-13T07:23:42.095Z,101342.78
2022-10-13T07:26:12.126Z,101342.78
2022-10-13T07:28:41.800Z,101344.56
2022-10-13T07:31:13.822Z,101344.56
2022-10-13T07:33:42.780Z,101344.56
2022-10-13T07:36:11.968Z,101345.47
2022-10-13T07:38:40.398Z,101346.31
2022-10-13T07:41:10.914Z,101339.28
2022-10-13T07:43:39.017Z,101341.00
2022-10-13T07:46:09.951Z,101340.13
2022-10-13T07:48:38.320Z,101337.50
2022-10-13T07:51:08.279Z,101339.22
2022-10-13T07:53:36.985Z,101331.28
2022-10-13T07:56:07.887Z,101332.13
2022-10-13T07:58:39.046Z,101328.63
2022-10-13T08:01:09.846Z,101332.13
2022-10-13T08:03:39.429Z,101318.06
2022-10-13T08:06:11.081Z,101323.28
2022-10-13T08:08:40.338Z,101318.88
2022-10-13T08:11:12.383Z,101329.41
2022-10-13T08:13:44.393Z,101316.19
2022-10-13T08:16:14.181Z,101323.25
2022-10-13T08:18:42.278Z,101329.38
2022-10-13T08:24:02.579Z,101333.72
2022-10-13T08:26:31.290Z,101310.88
2022-10-13T08:34:23.292Z,101319.56
2022-10-13T08:36:56.839Z,101308.97
2022-10-13T08:39:26.496Z,101319.56
2022-10-13T08:41:57.557Z,101316.88
2022-10-13T08:45:06.215Z,101326.66
2022-10-13T08:47:43.537Z,101329.25
2022-10-13T08:50:15.409Z,101331.81
2022-10-13T08:52:50.339Z,101335.31
2022-10-13T08:55:29.516Z,101330.03
2022-10-13T08:57:58.326Z,101321.25
2022-10-13T09:00:26.604Z,101330.81
2022-10-13T09:03:03.545Z,101338.81
2022-10-13T09:05:39.787Z,101329.97
2022-10-13T09:08:17.867Z,101336.19
2022-10-13T09:10:50.425Z,101338.72
2022-10-13T09:13:19.607Z,101348.38
2022-10-13T09:15:50.481Z,101337.00
2022-10-13T09:18:20.544Z,101352.78
2022-10-13T09:20:48.822Z,101338.69
2022-10-13T09:23:21.131Z,101358.06
2022-10-13T09:25:51.065Z,101354.44
2022-10-13T09:28:23.049Z,101353.59
2022-10-13T09:31:03.777Z,101357.94
2022-10-13T09:33:37.059Z,101357.84
2022-10-13T09:36:12.431Z,101355.16
2022-10-13T09:38:45.732Z,101357.75
2022-10-13T09:41:18.715Z,101352.56
2022-10-13T09:44:01.292Z,101367.53
2022-10-13T09:46:35.150Z,101361.41
2022-10-13T09:49:08.298Z,101371.81
2022-10-13T09:51:40.209Z,101372.56
2022-10-13T09:54:26.098Z,101375.34
2022-10-13T09:57:00.294Z,101380.66
2022-10-13T09:59:36.759Z,101365.72
2022-10-13T10:02:29.930Z,101371.06
2022-10-13T10:05:05.733Z,101375.50
2022-10-13T10:07:35.381Z,101371.97
2022-10-13T10:10:14.697Z,101366.72
2022-10-13T10:12:44.610Z,101371.13
2022-10-13T10:15:33.453Z,101367.59
2022-10-13T10:18:08.383Z,101373.69
2022-10-13T10:21:01.934Z,101368.34
2022-10-13T10:23:44.056Z,101371.81
2022-10-13T10:26:22.243Z,101374.44
2022-10-13T10:29:03.365Z,101371.75
2022-10-13T10:31:44.952Z,101369.09
2022-10-13T10:34:32.448Z,101361.19
2022-10-13T10:37:14.793Z,101364.72
2022-10-13T10:39:49.196Z,101362.88
2022-10-13T10:43:00.619Z,101358.50
2022-10-13T10:45:35.802Z,101365.41
2022-10-13T10:48:12.861Z,101368.00
2022-10-13T10:50:41.972Z,101353.88
2022-10-13T10:53:21.824Z,101327.63
2022-10-13T10:55:55.623Z,101355.50
2022-10-13T10:58:33.220Z,101357.25
2022-10-13T11:01:15.524Z,101353.88
2022-10-13T11:03:52.100Z,101341.53
2022-10-13T11:06:26.441Z,101346.69
2022-10-13T11:08:56.659Z,101339.63
2022-10-13T11:11:45.897Z,101348.50
2022-10-13T11:14:38.086Z,101348.69
2022-10-13T11:17:20.636Z,101342.44
2022-10-13T11:19:50.269Z,101332.69
2022-10-13T11:22:20.905Z,101343.28
2022-10-13T11:24:56.392Z,101341.72
2022-10-13T11:27:39.046Z,101332.78
2022-10-13T11:30:31.098Z,101328.38
2022-10-13T11:32:59.293Z,101334.53
2022-10-13T11:35:29.814Z,101328.38
2022-10-13T11:38:32.222Z,101331.91
2022-10-13T11:41:17.104Z,101341.53
2022-10-13T11:43:56.058Z,101322.16
2022-10-13T11:46:32.720Z,101342.50
2022-10-13T11:49:36.745Z,101348.63
2022-10-13T11:52:45.990Z,101346.84
2022-10-13T11:55:19.586Z,101337.06
2022-10-13T11:57:49.170Z,101333.59
2022-10-13T12:00:19.718Z,101330.88
2022-10-13T12:02:53.553Z,101329.09
2022-10-13T12:05:24.839Z,101318.53
2022-10-13T12:07:56.124Z,101321.28
2022-10-13T12:10:31.003Z,101313.31
2022-10-13T12:13:01.921Z,101305.38
2022-10-13T12:15:33.913Z,101309.75
2022-10-13T12:18:02.950Z,101295.63
2022-10-13T12:20:33.031Z,101297.44
2022-10-13T12:23:01.203Z,101295.69
2022-10-13T12:25:31.480Z,101302.63
2022-10-13T12:28:02.170Z,101285.06
2022-10-13T12:30:36.037Z,101288.50
2022-10-13T12:33:06.319Z,101302.59
2022-10-13T12:35:35.859Z,101295.53
2022-10-13T12:38:08.663Z,101293.72
2022-10-13T12:40:37.190Z,101289.44
2022-10-13T12:43:07.054Z,101280.53
2022-10-13T12:45:36.678Z,101286.69
2022-10-13T12:48:05.273Z,101290.25
2022-10-13T12:50:39.376Z,101291.00
2022-10-13T12:53:15.577Z,101282.97
2022-10-13T12:56:01.672Z,101263.69
2022-10-13T12:58:34.138Z,101284.84
2022-10-13T13:01:27.475Z,101268.03
2022-10-13T13:03:57.571Z,101277.75
2022-10-13T13:06:35.003Z,101269.03
2022-10-13T13:09:28.420Z,101269.72
2022-10-13T13:12:22.193Z,101263.69
2022-10-13T13:14:56.841Z,101263.66
2022-10-13T13:17:56.567Z,101231.16
2022-10-13T13:20:21.799Z,101238.16
2022-10-13T13:22:51.068Z,101265.34
2022-10-13T13:25:19.441Z,101262.69
2022-10-13T13:27:48.110Z,101249.50
2022-10-13T13:30:20.558Z,101254.69
2022-10-13T13:32:49.996Z,101259.94
2022-10-13T13:35:18.919Z,101241.44
2022-10-13T13:37:50.127Z,101258.25
2022-10-13T13:40:20.752Z,101262.78
2022-10-13T13:42:48.980Z,101253.09
2022-10-13T13:45:20.594Z,101263.66
2022-10-13T13:47:49.734Z,101266.34
2022-10-13T13:50:21.956Z,101265.50
2022-10-13T13:52:50.380Z,101261.09
2022-10-13T13:55:19.326Z,101274.41
2022-10-13T13:57:47.793Z,101232.16
2022-10-13T14:00:21.489Z,101258.66
2022-10-13T14:02:50.130Z,101262.28
2022-10-13T14:05:18.969Z,101264.03
2022-10-13T14:07:47.058Z,101262.13
2022-10-13T14:10:15.624Z,101258.56
2022-10-13T14:12:44.661Z,101262.00
2022-10-13T14:15:12.943Z,101241.09
2022-10-13T14:17:43.376Z,101256.94
2022-10-13T14:20:15.100Z,101260.47
2022-10-13T14:22:43.408Z,101254.38
2022-10-13T14:25:12.149Z,101263.19
2022-10-13T14:27:40.369Z,101268.50
2022-10-13T14:30:11.351Z,101263.13
2022-10-13T14:32:40.113Z,101262.22
2022-10-13T14:35:10.349Z,101255.97
2022-10-13T14:37:39.128Z,101261.22
2022-10-13T14:40:08.672Z,101262.19
2022-10-13T14:42:36.886Z,101259.56
2022-10-13T14:45:06.746Z,101253.44
2022-10-13T14:47:35.092Z,101251.72
2022-10-13T14:50:03.473Z,101247.28
2022-10-13T14:52:33.435Z,101253.44
2022-10-13T14:55:01.605Z,101239.31
2022-10-13T14:57:30.009Z,101234.06
2022-10-13T15:00:01.850Z,101241.94
2022-10-13T15:02:31.266Z,101242.84
2022-10-13T15:04:59.965Z,101242.84
2022-10-13T15:07:28.231Z,101233.28
2022-10-13T15:10:05.317Z,101231.47
2022-10-13T15:12:34.261Z,101227.13
2022-10-13T15:15:02.874Z,101228.84
2022-10-13T15:17:33.516Z,101223.47
2022-10-13T15:20:01.822Z,101228.84
2022-10-13T15:22:30.534Z,101223.56
2022-10-13T15:24:59.961Z,101227.28
2022-10-13T15:27:28.126Z,101223.72
2022-10-13T15:29:56.659Z,101215.78
2022-10-13T15:32:25.265Z,101225.34
2022-10-13T15:34:54.537Z,101220.19
2022-10-13T15:37:23.085Z,101219.28
2022-10-13T15:39:56.912Z,101214.94
2022-10-13T15:42:27.354Z,101205.34
2022-10-13T15:45:11.684Z,101209.75
2022-10-13T15:47:40.610Z,101208.94
2022-10-13T15:50:10.123Z,101194.91
2022-10-13T15:52:45.914Z,101166.81
2022-10-13T15:55:14.116Z,101183.50
2022-10-13T15:57:43.709Z,101194.91
2022-10-13T16:00:14.373Z,101186.94
2022-10-13T16:02:43.379Z,101179.88
2022-10-13T16:05:13.862Z,101174.66
2022-10-13T16:07:42.255Z,101171.13
2022-10-13T16:10:12.606Z,101178.16
2022-10-13T16:12:48.528Z,101172.88
2022-10-13T16:15:20.135Z,101169.44
2022-10-13T16:17:48.419Z,101167.69
2022-10-13T16:20:16.498Z,101163.22
2022-10-13T16:22:44.792Z,101167.63
2022-10-13T16:25:13.332Z,101157.19
2022-10-13T16:27:44.302Z,101167.69
2022-10-13T16:30:13.418Z,101148.41
2022-10-13T16:32:43.637Z,101150.13
2022-10-13T16:35:11.963Z,101148.38
2022-10-13T16:37:40.120Z,101158.03
2022-10-13T16:40:10.834Z,101153.53
2022-10-13T16:42:39.020Z,101167.63
2022-10-13T16:45:08.643Z,101165.88
2022-10-13T16:47:37.014Z,101162.44
2022-10-13T16:50:09.931Z,101163.34
2022-10-13T16:52:38.685Z,101164.25
2022-10-13T16:55:08.056Z,101147.53
2022-10-13T16:57:36.430Z,101153.69
2022-10-13T17:00:05.594Z,101150.19
2022-10-13T17:02:33.938Z,101154.50
2022-10-13T17:05:02.582Z,101152.00
2022-10-13T17:07:32.714Z,101157.19
2022-10-13T17:10:01.543Z,101166.94
2022-10-13T17:12:29.764Z,101168.72
2022-10-13T17:15:00.810Z,101155.66
2022-10-13T17:17:29.135Z,101143.41
2022-10-13T17:19:57.371Z,101162.66
2022-10-13T17:22:26.939Z,101173.19
2022-10-13T17:24:56.694Z,101174.03
2022-10-13T17:27:25.345Z,101184.59
2022-10-13T17:29:55.069Z,101185.56
2022-10-13T17:32:25.658Z,101182.06
2022-10-13T17:34:57.213Z,101196.16
2022-10-13T17:37:28.165Z,101182.94
2022-10-13T17:39:57.933Z,101189.16
2022-10-13T17:42:26.137Z,101183.88
2022-10-13T17:44:54.437Z,101188.25
2022-10-13T17:47:23.086Z,101190.97
2022-10-13T17:49:51.667Z,101193.66
2022-10-13T17:52:19.776Z,101189.28
2022-10-13T17:54:47.973Z,101194.59
2022-10-13T17:57:18.188Z,101196.41
2022-10-13T17:59:47.262Z,101193.78
2022-10-13T18:02:15.692Z,101196.38
2022-10-13T18:04:45.091Z,101182.31
2022-10-13T18:07:13.194Z,101194.59
2022-10-13T18:09:42.027Z,101203.38
2022-10-13T18:12:10.323Z,101196.41
2022-10-13T18:14:41.687Z,101206.16
2022-10-13T18:17:12.562Z,101187.72
2022-10-13T18:19:44.084Z,101184.16
2022-10-13T18:22:12.433Z,101190.34
2022-10-13T18:24:41.360Z,101193.91
2022-10-13T18:27:12.866Z,101191.22
2022-10-13T18:29:43.923Z,101185.91
2022-10-13T18:32:11.967Z,101192.94
2022-10-13T18:34:40.147Z,101187.66
2022-10-13T18:37:08.883Z,101189.50
2022-10-13T18:39:36.917Z,101185.09
2022-10-13T18:42:05.538Z,101185.16
2022-10-13T18:44:37.026Z,101175.41
2022-10-13T18:47:07.395Z,101135.97
2022-10-13T18:49:35.703Z,101178.91
2022-10-13T18:52:04.145Z,101180.66
2022-10-13T18:54:32.728Z,101180.66
2022-10-13T18:57:00.935Z,101166.59
2022-10-13T18:59:29.356Z,101171.81
2022-10-13T19:01:57.488Z,101166.50
2022-10-13T19:04:27.284Z,101171.78
2022-10-13T19:06:55.570Z,101162.91
2022-10-13T19:09:25.144Z,101164.72
2022-10-13T19:11:56.552Z,101151.50
2022-10-13T19:14:24.641Z,101150.59
2022-10-13T19:16:52.740Z,101156.78
2022-10-13T19:19:21.030Z,101166.50
2022-10-13T19:21:50.864Z,101162.97
2022-10-13T19:24:19.309Z,101162.06
2022-10-13T19:26:47.727Z,101159.38
2022-10-13T19:29:16.274Z,101159.34
2022-10-13T19:31:44.979Z,101156.72
2022-10-13T19:34:14.397Z,101157.59
2022-10-13T19:36:43.878Z,101150.63
2022-10-13T19:39:16.271Z,101154.16
2022-10-13T19:41:45.146Z,101152.44
2022-10-13T19:44:13.574Z,101154.19
2022-10-13T19:46:43.712Z,101150.66
2022-10-13T19:49:16.253Z,101148.94
2022-10-13T19:51:44.902Z,101143.66
2022-10-13T19:54:14.715Z,101145.44
2022-10-13T19:56:42.956Z,101143.66
2022-10-13T19:59:11.628Z,101140.16
2022-10-13T20:01:42.125Z,101147.09
2022-10-13T20:04:11.011Z,101138.28
2022-10-13T20:06:42.296Z,101135.66
2022-10-13T20:09:10.971Z,101141.81
2022-10-13T20:11:41.052Z,101133.00
2022-10-13T20:14:09.965Z,101141.72
2022-10-13T20:16:39.018Z,101139.97
2022-10-13T20:19:07.657Z,101139.09
2022-10-13T20:21:35.991Z,101132.94
2022-10-13T20:24:04.319Z,101136.47
2022-10-13T20:26:32.800Z,101131.13
2022-10-13T20:29:02.455Z,101131.13
2022-10-13T20:31:30.679Z,101129.34
2022-10-13T20:34:00.498Z,101118.81
2022-10-13T20:36:29.302Z,101096.91
2022-10-13T20:38:57.476Z,101127.69
2022-10-13T20:41:28.408Z,101125.88
2022-10-13T20:43:59.230Z,101134.66
2022-10-13T20:46:29.222Z,101143.41
2022-10-13T20:49:10.321Z,101113.53
2022-10-13T20:51:40.355Z,101129.25
2022-10-13T20:54:08.905Z,101128.41
2022-10-13T20:56:37.126Z,101123.13
2022-10-13T20:59:06.475Z,101109.03
2022-10-13T21:01:37.117Z,101102.91
2022-10-13T21:04:06.191Z,101105.53
2022-10-13T21:06:35.951Z,101094.16
2022-10-13T21:09:05.906Z,101080.13
2022-10-13T21:11:34.802Z,101094.06
2022-10-13T21:14:06.630Z,101104.59
2022-10-13T21:16:37.177Z,101104.56
2022-10-13T21:19:05.769Z,101099.28
2022-10-13T21:21:36.076Z,101089.72
2022-10-13T21:24:07.550Z,101046.75
2022-10-13T21:26:36.507Z,101106.31
2022-10-13T21:29:05.314Z,101097.47
2022-10-13T21:31:33.710Z,101099.19
2022-10-13T21:34:03.333Z,101090.34
2022-10-13T21:36:33.112Z,101095.56
2022-10-13T21:39:03.848Z,101091.19
2022-10-13T21:41:32.438Z,101103.47
2022-10-13T21:44:00.684Z,101097.34
2022-10-13T21:46:30.456Z,101092.06
2022-10-13T21:49:00.533Z,101086.72
2022-10-13T21:51:31.940Z,101070.94
2022-10-13T21:54:02.000Z,101085.81
2022-10-13T21:56:31.131Z,101077.97
2022-10-13T21:58:59.722Z,101079.66
2022-10-13T22:01:28.038Z,101079.66
2022-10-13T22:03:58.385Z,101088.47
2022-10-13T22:06:27.774Z,101088.53
2022-10-13T22:09:00.257Z,101081.47
2022-10-13T22:11:31.288Z,101074.50
2022-10-13T22:14:00.624Z,101086.81
2022-10-13T22:16:35.041Z,101084.94
2022-10-13T22:19:03.393Z,101072.69
2022-10-13T22:21:33.423Z,101084.91
2022-10-13T22:24:06.158Z,101088.53
2022-10-13T22:26:37.233Z,101068.34
2022-10-13T22:29:07.962Z,101080.63
2022-10-13T22:31:36.939Z,101083.16
2022-10-13T22:34:05.817Z,101075.28
2022-10-13T22:36:34.185Z,101076.16
2022-10-13T22:39:05.637Z,101071.00
2022-10-13T22:41:35.011Z,101071.81
2022-10-13T22:44:04.485Z,101073.53
2022-10-13T22:46:36.097Z,101053.34
2022-10-13T22:49:05.650Z,101056.88
2022-10-13T22:51:35.825Z,101054.19
2022-10-13T22:54:06.397Z,101042.78
2022-10-13T22:56:35.864Z,101049.78
2022-10-13T22:59:06.730Z,101046.28
2022-10-13T23:01:36.225Z,101051.50
2022-10-13T23:04:05.500Z,101047.97
2022-10-13T23:06:35.613Z,101032.19
2022-10-13T23:09:07.744Z,101026.94
2022-10-13T23:11:36.257Z,101026.91
2022-10-13T23:14:04.982Z,101030.38
2022-10-13T23:16:33.910Z,101025.09
2022-10-13T23:19:02.477Z,101019.81
2022-10-13T23:21:32.026Z,101008.44
2022-10-13T23:24:02.487Z,101011.94
2022-10-13T23:26:32.781Z,100998.72
2022-10-13T23:29:01.678Z,100997.03
2022-10-13T23:31:30.475Z,101000.53
2022-10-13T23:33:59.679Z,100995.22
2022-10-13T23:36:29.826Z,100984.69
2022-10-13T23:38:59.737Z,100979.47
2022-10-13T23:41:28.447Z,100988.22
2022-10-13T23:43:58.490Z,100988.25
2022-10-13T23:46:27.301Z,100975.91
2022-10-13T23:48:55.435Z,100975.94
2022-10-13T23:51:25.923Z,100974.13
2022-10-13T23:53:54.553Z,100968.81
2022-10-13T23:56:23.129Z,100966.16
2022-10-13T23:58:51.977Z,100960.88
